createdAt,value
2022-08-24T00:00:35.566Z,14.05
2022-08-24T00:03:40.973Z,13.60
2022-08-24T00:06:44.350Z,14.90
2022-08-24T00:09:50.594Z,14.52
2022-08-24T00:12:55.715Z,14.82
2022-08-24T00:15:58.988Z,13.55
2022-08-24T00:19:03.275Z,13.85
2022-08-24T00:22:07.366Z,13.40
2022-08-24T00:25:12.044Z,14.43
2022-08-24T00:28:16.901Z,15.15
2022-08-24T00:31:20.247Z,15.52
2022-08-24T00:34:23.656Z,14.90
2022-08-24T00:37:27.415Z,16.35
2022-08-24T00:40:34.928Z,15.35
2022-08-24T00:43:39.634Z,15.65
2022-08-24T00:46:46.956Z,15.55
2022-08-24T00:49:57.738Z,16.48
2022-08-24T00:53:05.594Z,15.02
2022-08-24T00:56:14.168Z,15.88
2022-08-24T00:59:23.485Z,15.02
2022-08-24T01:02:32.403Z,16.02
2022-08-24T01:05:38.155Z,14.45
2022-08-24T01:08:42.065Z,14.85
2022-08-24T01:11:46.091Z,14.40
2022-08-24T01:14:50.892Z,14.85
2022-08-24T01:18:23.055Z,15.20
2022-08-24T01:21:32.772Z,14.95
2022-08-24T01:24:39.029Z,14.65
2022-08-24T01:27:43.844Z,14.52
2022-08-24T01:30:48.083Z,15.02
2022-08-24T01:33:53.102Z,15.77
2022-08-24T01:36:58.098Z,16.92
2022-08-24T01:40:06.812Z,15.40
2022-08-24T01:43:10.429Z,14.93
2022-08-24T01:46:13.756Z,14.98
2022-08-24T01:49:17.869Z,16.02
2022-08-24T01:52:24.480Z,16.48
2022-08-24T01:55:30.588Z,15.15
2022-08-24T01:58:34.035Z,16.20
2022-08-24T02:01:40.832Z,14.45
2022-08-24T02:04:44.427Z,15.15
2022-08-24T02:07:48.788Z,16.02
2022-08-24T02:10:56.365Z,16.67
2022-08-24T02:14:01.019Z,17.33
2022-08-24T02:17:05.727Z,16.48
2022-08-24T02:20:10.542Z,16.85
2022-08-24T02:23:14.560Z,16.70
2022-08-24T02:26:20.160Z,17.20
2022-08-24T02:29:23.789Z,18.23
2022-08-24T02:32:27.233Z,19.77
2022-08-24T02:35:31.369Z,18.05
2022-08-24T02:38:35.257Z,17.98
2022-08-24T02:41:41.931Z,17.63
2022-08-24T02:44:45.418Z,18.00
2022-08-24T02:47:49.364Z,18.42
2022-08-24T02:50:54.045Z,18.02
2022-08-24T02:53:59.316Z,17.90
2022-08-24T02:57:04.449Z,16.58
2022-08-24T03:00:11.635Z,18.52
2022-08-24T03:03:21.224Z,18.00
2022-08-24T03:06:24.580Z,18.05
2022-08-24T03:09:28.803Z,19.42
2022-08-24T03:12:35.734Z,18.98
2022-08-24T03:15:39.225Z,20.05
2022-08-24T03:18:42.665Z,19.17
2022-08-24T03:21:47.630Z,18.58
2022-08-24T03:24:50.893Z,19.40
2022-08-24T03:27:55.697Z,18.52
2022-08-24T03:30:59.177Z,18.58
2022-08-24T03:34:02.929Z,18.65
2022-08-24T03:37:06.478Z,19.08
2022-08-24T03:40:23.091Z,19.25
2022-08-24T03:43:48.672Z,18.73
2022-08-24T03:46:57.384Z,18.00
2022-08-24T03:50:02.707Z,19.05
2022-08-24T03:53:08.603Z,19.55
2022-08-24T03:56:12.587Z,20.48
2022-08-24T03:59:20.100Z,18.17
2022-08-24T04:02:31.112Z,20.00
2022-08-24T04:08:40.212Z,18.20
2022-08-24T04:11:46.041Z,18.60
2022-08-24T04:14:55.851Z,18.77
2022-08-24T04:18:00.514Z,18.13
2022-08-24T04:21:04.672Z,17.92
2022-08-24T04:24:10.429Z,19.13
2022-08-24T04:27:13.737Z,16.35
2022-08-24T04:30:18.542Z,17.10
2022-08-24T04:33:49.798Z,16.25
2022-08-24T04:36:57.899Z,17.35
2022-08-24T04:40:03.366Z,16.92
2022-08-24T04:43:20.122Z,17.08
2022-08-24T04:55:51.142Z,18.20
2022-08-24T04:59:37.923Z,22.23
2022-08-24T05:03:26.535Z,16.90
2022-08-24T05:06:34.030Z,16.30
2022-08-24T05:09:37.363Z,15.10
2022-08-24T05:12:44.230Z,15.73
2022-08-24T05:15:49.666Z,14.63
2022-08-24T05:18:54.678Z,14.65
2022-08-24T05:21:58.635Z,21.67
2022-08-24T05:25:02.552Z,15.45
2022-08-24T05:28:07.884Z,13.55
2022-08-24T05:31:13.801Z,14.13
2022-08-24T05:34:19.427Z,12.77
2022-08-24T05:37:23.076Z,14.30
2022-08-24T05:40:42.554Z,14.73
2022-08-24T05:43:47.894Z,12.80
2022-08-24T05:46:51.683Z,14.15
2022-08-24T05:49:55.112Z,13.27
2022-08-24T05:52:58.815Z,13.77
2022-08-24T05:56:04.657Z,14.00
2022-08-24T05:59:19.780Z,13.40
2022-08-24T06:02:24.809Z,14.30
2022-08-24T06:05:28.360Z,13.20
2022-08-24T06:08:32.241Z,55.15
2022-08-24T06:11:38.475Z,16.15
2022-08-24T06:14:47.611Z,13.77
2022-08-24T06:17:53.265Z,13.80
2022-08-24T06:20:57.921Z,13.05
2022-08-24T06:24:02.488Z,13.10
2022-08-24T06:27:23.973Z,12.88
2022-08-24T06:30:31.940Z,12.95
2022-08-24T06:34:08.154Z,12.88
2022-08-24T06:37:11.671Z,12.45
2022-08-24T06:40:15.328Z,13.15
2022-08-24T06:43:19.042Z,12.05
2022-08-24T06:46:32.739Z,11.82
2022-08-24T06:49:37.318Z,11.57
2022-08-24T06:52:41.042Z,13.02
2022-08-24T06:55:48.233Z,11.68
2022-08-24T06:58:53.142Z,11.27
2022-08-24T07:01:58.517Z,14.23
2022-08-24T07:05:04.369Z,19.73
2022-08-24T07:08:26.571Z,13.35
2022-08-24T07:11:30.238Z,12.38
2022-08-24T07:14:33.650Z,12.50
2022-08-24T07:17:39.953Z,13.68
2022-08-24T07:20:45.172Z,12.70
2022-08-24T07:23:57.352Z,11.55
2022-08-24T07:27:01.759Z,11.75
2022-08-24T07:30:25.807Z,11.00
2022-08-24T07:33:32.067Z,11.55
2022-08-24T07:36:38.047Z,10.00
2022-08-24T07:39:46.587Z,10.38
2022-08-24T07:42:50.778Z,13.85
2022-08-24T07:45:55.242Z,14.50
2022-08-24T07:49:11.334Z,9.23
2022-08-24T07:52:23.546Z,9.55
2022-08-24T07:55:27.718Z,8.70
2022-08-24T07:58:32.145Z,9.57
2022-08-24T08:01:35.569Z,9.00
2022-08-24T08:04:40.413Z,9.27
2022-08-24T08:07:45.695Z,8.68
2022-08-24T08:10:50.318Z,8.93
2022-08-24T08:13:54.416Z,9.10
2022-08-24T08:16:58.082Z,8.25
2022-08-24T08:20:03.003Z,8.35
2022-08-24T08:23:23.804Z,7.75
2022-08-24T08:26:50.543Z,7.32
2022-08-24T08:30:01.792Z,6.65
2022-08-24T08:33:06.013Z,8.20
2022-08-24T08:36:15.104Z,7.57
2022-08-24T08:39:26.892Z,7.00
2022-08-24T08:43:01.379Z,14.45
2022-08-24T08:46:21.040Z,6.78
2022-08-24T08:50:07.167Z,7.65
2022-08-24T08:53:45.471Z,6.75
2022-08-24T08:57:12.242Z,19.73
2022-08-24T09:00:23.708Z,8.68
2022-08-24T09:04:01.700Z,7.88
2022-08-24T09:07:28.722Z,7.30
2022-08-24T09:10:55.668Z,7.18
2022-08-24T09:14:28.374Z,7.75
2022-08-24T09:17:46.373Z,7.93
2022-08-24T09:21:15.221Z,8.55
2022-08-24T09:24:32.759Z,8.27
2022-08-24T09:28:14.510Z,7.22
2022-08-24T09:31:43.513Z,7.28
2022-08-24T09:34:57.146Z,7.60
2022-08-24T09:38:10.414Z,23.02
2022-08-24T09:41:51.763Z,35.83
2022-08-24T09:45:36.873Z,8.32
2022-08-24T09:49:05.894Z,10.40
2022-08-24T09:52:31.650Z,8.50
2022-08-24T09:56:06.010Z,8.07
2022-08-24T09:59:29.669Z,8.45
2022-08-24T10:02:48.996Z,7.93
2022-08-24T10:06:11.691Z,8.23
2022-08-24T10:09:56.118Z,7.80
2022-08-24T10:13:10.205Z,7.50
2022-08-24T10:16:29.025Z,8.00
2022-08-24T10:19:49.641Z,8.05
2022-08-24T10:23:28.960Z,9.57
2022-08-24T10:26:41.422Z,7.93
2022-08-24T10:30:11.250Z,8.10
2022-08-24T10:33:21.869Z,7.43
2022-08-24T10:37:09.705Z,7.38
2022-08-24T10:40:40.317Z,7.63
2022-08-24T10:44:18.381Z,7.85
2022-08-24T10:47:26.811Z,6.78
2022-08-24T10:50:41.942Z,6.72
2022-08-24T10:53:50.953Z,7.28
2022-08-24T10:57:02.809Z,6.68
2022-08-24T11:00:11.899Z,6.32
2022-08-24T11:03:27.956Z,7.00
2022-08-24T11:06:35.093Z,7.07
2022-08-24T11:09:47.907Z,7.15
2022-08-24T11:12:54.756Z,6.82
2022-08-24T11:16:03.075Z,7.05
2022-08-24T11:19:13.192Z,6.30
2022-08-24T11:22:43.101Z,6.60
2022-08-24T11:25:57.400Z,7.32
2022-08-24T11:29:10.583Z,7.05
2022-08-24T11:32:30.881Z,7.38
2022-08-24T11:35:43.433Z,7.50
2022-08-24T11:38:47.179Z,6.88
2022-08-24T11:41:57.332Z,7.32
2022-08-24T11:45:11.266Z,7.38
2022-08-24T11:48:29.674Z,6.63
2022-08-24T11:51:42.504Z,7.80
2022-08-24T11:54:51.301Z,6.90
2022-08-24T11:58:02.398Z,7.28
2022-08-24T12:01:18.757Z,7.63
2022-08-24T12:04:39.342Z,7.55
2022-08-24T12:07:54.530Z,7.07
2022-08-24T12:11:12.130Z,8.13
2022-08-24T12:14:23.063Z,8.30
2022-08-24T12:17:33.852Z,7.20
2022-08-24T12:20:42.206Z,8.02
2022-08-24T12:23:49.946Z,7.82
2022-08-24T12:26:58.120Z,7.97
2022-08-24T12:30:12.024Z,8.30
2022-08-24T12:33:20.332Z,8.05
2022-08-24T12:36:30.149Z,7.93
2022-08-24T12:39:39.279Z,8.45
2022-08-24T12:42:52.237Z,10.07
2022-08-24T12:45:59.981Z,8.73
2022-08-24T12:49:15.647Z,7.85
2022-08-24T12:52:36.558Z,8.50
2022-08-24T12:56:14.403Z,7.97
2022-08-24T12:59:23.707Z,8.35
2022-08-24T13:02:33.720Z,9.70
2022-08-24T13:05:45.098Z,8.80
2022-08-24T13:08:51.894Z,9.10
2022-08-24T13:11:56.915Z,8.82
2022-08-24T13:15:26.079Z,9.25
2022-08-24T13:18:50.575Z,9.10
2022-08-24T13:22:02.682Z,8.88
2022-08-24T13:25:42.638Z,9.10
2022-08-24T13:28:49.384Z,8.85
2022-08-24T13:32:00.972Z,9.20
2022-08-24T13:35:53.569Z,9.80
2022-08-24T13:39:13.587Z,10.27
2022-08-24T13:42:31.616Z,9.85
2022-08-24T13:45:42.719Z,10.10
2022-08-24T13:48:56.346Z,10.70
2022-08-24T13:52:15.104Z,8.95
2022-08-24T13:55:37.164Z,9.48
2022-08-24T13:58:46.292Z,9.52
2022-08-24T14:05:10.595Z,9.65
2022-08-24T14:08:37.464Z,10.45
2022-08-24T14:12:00.171Z,9.25
2022-08-24T14:15:24.542Z,10.65
2022-08-24T14:18:35.840Z,10.50
2022-08-24T14:21:45.812Z,9.27
2022-08-24T14:24:56.971Z,9.43
2022-08-24T14:28:37.304Z,9.15
2022-08-24T14:31:41.189Z,8.88
2022-08-24T14:34:56.435Z,8.60
2022-08-24T14:38:26.436Z,8.73
2022-08-24T14:41:50.422Z,9.48
2022-08-24T14:45:05.334Z,10.68
2022-08-24T14:48:20.703Z,10.18
2022-08-24T14:51:44.976Z,10.30
2022-08-24T14:55:02.338Z,10.95
2022-08-24T14:58:29.097Z,10.05
2022-08-24T15:01:42.943Z,10.00
2022-08-24T15:04:53.919Z,10.13
2022-08-24T15:08:01.668Z,9.48
2022-08-24T15:11:09.971Z,9.38
2022-08-24T15:14:33.683Z,9.20
2022-08-24T15:17:59.375Z,10.05
2022-08-24T15:21:13.561Z,10.27
2022-08-24T15:24:31.388Z,9.80
2022-08-24T15:27:44.741Z,9.30
2022-08-24T15:30:56.858Z,8.77
2022-08-24T15:34:04.107Z,9.10
2022-08-24T15:37:07.742Z,8.82
2022-08-24T15:40:22.715Z,9.93
2022-08-24T15:43:28.216Z,8.60
2022-08-24T15:46:37.209Z,8.45
2022-08-24T15:53:00.172Z,9.18
2022-08-24T15:56:27.892Z,8.80
2022-08-24T15:59:33.413Z,7.93
2022-08-24T16:02:39.090Z,7.72
2022-08-24T16:05:51.160Z,8.45
2022-08-24T16:09:00.588Z,8.57
2022-08-24T16:12:07.558Z,8.50
2022-08-24T16:15:17.154Z,7.60
2022-08-24T16:18:22.239Z,7.78
2022-08-24T16:21:34.427Z,7.43
2022-08-24T16:24:40.283Z,7.53
2022-08-24T16:28:02.534Z,7.90
2022-08-24T16:31:09.850Z,7.95
2022-08-24T16:34:24.161Z,7.18
2022-08-24T16:37:29.534Z,7.97
2022-08-24T16:40:34.665Z,7.85
2022-08-24T16:43:40.576Z,7.45
2022-08-24T16:46:47.307Z,6.82
2022-08-24T16:49:52.753Z,7.47
2022-08-24T16:52:58.324Z,8.05
2022-08-24T16:56:04.675Z,8.77
2022-08-24T16:59:08.529Z,7.45
2022-08-24T17:02:13.005Z,7.93
2022-08-24T17:05:17.934Z,9.32
2022-08-24T17:08:23.165Z,8.98
2022-08-24T17:11:27.854Z,9.00
2022-08-24T17:14:31.792Z,9.45
2022-08-24T17:17:35.879Z,10.00
2022-08-24T17:20:39.886Z,11.18
2022-08-24T17:23:46.329Z,10.68
2022-08-24T17:26:51.021Z,9.65
2022-08-24T17:29:54.860Z,10.13
2022-08-24T17:32:59.334Z,9.73
2022-08-24T17:36:05.426Z,9.55
2022-08-24T17:39:13.642Z,10.05
2022-08-24T17:42:46.909Z,10.50
2022-08-24T17:45:42.666Z,9.38
2022-08-24T17:48:47.487Z,10.00
2022-08-24T17:51:51.247Z,10.05
2022-08-24T17:54:56.303Z,10.43
2022-08-24T17:58:00.066Z,10.02
2022-08-24T18:01:03.647Z,10.68
2022-08-24T18:04:07.187Z,10.38
2022-08-24T18:07:19.031Z,11.35
2022-08-24T18:10:33.800Z,11.43
2022-08-24T18:13:37.160Z,11.95
2022-08-24T18:16:40.873Z,11.02
2022-08-24T18:19:45.533Z,11.05
2022-08-24T18:22:52.842Z,12.27
2022-08-24T18:25:59.632Z,13.20
2022-08-24T18:29:10.017Z,13.15
2022-08-24T18:32:31.742Z,12.43
2022-08-24T18:35:37.390Z,13.40
2022-08-24T18:38:41.942Z,11.95
2022-08-24T18:41:49.670Z,12.40
2022-08-24T18:44:54.279Z,12.27
2022-08-24T18:47:57.562Z,11.60
2022-08-24T18:51:02.689Z,11.40
2022-08-24T18:54:09.102Z,11.73
2022-08-24T18:57:14.152Z,11.85
2022-08-24T19:00:18.261Z,11.85
2022-08-24T19:03:24.750Z,12.25
2022-08-24T19:06:30.484Z,11.73
2022-08-24T19:09:34.598Z,28.65
2022-08-24T19:12:46.823Z,11.40
2022-08-24T19:15:51.880Z,11.73
2022-08-24T19:18:55.982Z,11.50
2022-08-24T19:22:00.396Z,11.68
2022-08-24T19:25:05.250Z,10.88
2022-08-24T19:28:10.911Z,12.05
2022-08-24T19:31:15.440Z,11.65
2022-08-24T19:34:18.859Z,12.13
2022-08-24T19:37:24.345Z,12.35
2022-08-24T19:40:27.892Z,12.15
2022-08-24T19:43:34.947Z,12.02
2022-08-24T19:46:38.536Z,12.30
2022-08-24T19:49:42.275Z,11.80
2022-08-24T19:52:46.622Z,11.85
2022-08-24T19:55:50.571Z,13.15
2022-08-24T19:59:01.770Z,12.43
2022-08-24T20:02:05.701Z,12.82
2022-08-24T20:05:09.463Z,13.43
2022-08-24T20:08:13.013Z,12.32
2022-08-24T20:11:16.994Z,12.70
2022-08-24T20:14:23.422Z,12.43
2022-08-24T20:17:27.095Z,12.13
2022-08-24T20:20:32.878Z,11.93
2022-08-24T20:23:36.484Z,12.43
2022-08-24T20:26:43.575Z,12.40
2022-08-24T20:29:48.719Z,12.88
2022-08-24T20:32:53.088Z,12.27
2022-08-24T20:35:58.243Z,12.55
2022-08-24T20:39:03.196Z,13.23
2022-08-24T20:42:13.952Z,12.25
2022-08-24T20:45:20.767Z,12.70
2022-08-24T20:48:28.245Z,12.45
2022-08-24T20:51:31.714Z,12.77
2022-08-24T20:54:40.124Z,13.20
2022-08-24T20:57:48.733Z,13.18
2022-08-24T21:00:53.684Z,12.15
2022-08-24T21:04:01.501Z,12.27
2022-08-24T21:07:11.526Z,12.57
2022-08-24T21:10:15.665Z,12.55
2022-08-24T21:13:19.254Z,13.60
2022-08-24T21:16:24.320Z,13.60
2022-08-24T21:19:27.936Z,13.35
2022-08-24T21:22:31.399Z,13.10
2022-08-24T21:25:34.876Z,14.25
2022-08-24T21:28:40.756Z,15.02
2022-08-24T21:32:06.379Z,13.43
2022-08-24T21:35:08.871Z,14.65
2022-08-24T21:38:19.785Z,14.27
2022-08-24T21:41:24.678Z,14.43
2022-08-24T21:44:28.315Z,13.60
2022-08-24T21:47:33.249Z,14.75
2022-08-24T21:50:36.709Z,15.65
2022-08-24T21:53:39.982Z,14.45
2022-08-24T21:56:43.298Z,15.60
2022-08-24T21:59:46.761Z,14.73
2022-08-24T22:02:54.075Z,16.02
2022-08-24T22:05:57.427Z,15.55
2022-08-24T22:09:01.712Z,14.43
2022-08-24T22:12:05.761Z,14.48
2022-08-24T22:15:13.216Z,15.02
2022-08-24T22:18:18.307Z,15.07
2022-08-24T22:21:24.447Z,15.10
2022-08-24T22:24:27.792Z,13.55
2022-08-24T22:27:31.199Z,15.25
2022-08-24T22:30:36.156Z,14.75
2022-08-24T22:33:40.833Z,14.68
2022-08-24T22:36:45.282Z,14.40
2022-08-24T22:39:48.925Z,14.70
2022-08-24T22:42:52.254Z,15.65
2022-08-24T22:45:55.643Z,15.65
2022-08-24T22:49:01.164Z,15.52
2022-08-24T22:52:05.339Z,15.85
2022-08-24T22:55:09.952Z,15.27
2022-08-24T22:58:13.517Z,16.00
2022-08-24T23:01:21.071Z,16.00
2022-08-24T23:04:29.183Z,16.30
2022-08-24T23:07:32.724Z,15.63
2022-08-24T23:10:36.136Z,16.63
2022-08-24T23:13:40.077Z,15.80
2022-08-24T23:16:47.699Z,16.30
2022-08-24T23:20:04.897Z,16.63
2022-08-24T23:23:08.200Z,15.52
2022-08-24T23:26:18.137Z,15.85
2022-08-24T23:32:25.125Z,16.38
2022-08-24T23:35:29.965Z,16.08
2022-08-24T23:38:33.385Z,16.63
2022-08-24T23:41:39.583Z,16.60
2022-08-24T23:44:46.124Z,16.05
2022-08-24T23:47:49.386Z,16.77
2022-08-24T23:50:54.052Z,16.67
2022-08-24T23:53:57.359Z,17.00
2022-08-24T23:57:00.603Z,17.05
